Portada
METAR-TAF:

METAR-TAF

Aeroports :

Comiso, Itàlia

latitud: 36-59-30N, longitud: 14-36-25E, altitud: 190 m

Observació

L'informe es va fer fa 7 hores i 30 minuts, a les 20:50 UTC
Vent 2 kt amb direcció variable
Temperatura 25°C
Humitat 79%
Pressió 1015 hPa
Visibilitat 10 km o més
sense núvols per sota de 1500 mi sense presència de cumulonimbus.

METAR: LICB 172050Z VRB02KT CAVOK 25/21 Q1015

Hora: 06:20 (04:20 UTC)

Pronòstic

L'informe es va fer fa 11 hores i 20 minuts, a les 17:00 UTC
Pronòstic vàlid del 17 a les 18 UTC al 18 a les 03 UTC
Vent 5 kt amb direcció variable
Visibilitat 10 km o més
Núvols disperses a una alçada de 3000 ft

TAF: LICB 171700Z 1718/1803 VRB05KT 9999 SCT030

Observacions i pronòstics meteorològics de més de 4000 aeroports (METAR i TAF).

Les estacions disponibles són els punts grocs i vermells al mapa.

Posi el ratolí al punt desitjat per veure el nom de l'estació.

Feu clic per veure les observacions i els pronòstics meteorològics.

Per canviar el mapa: feu clic els botons verds amb una creu de color negre per apropar; al botó verd amb un guió per allunyar la imatge; o en les fletxes verdes per a mapes adjacents.


METAR-TAF: